sensor_id;sensor_type;location;lat;lon;timestamp;pressure;altitude;pressure_sealevel;temperature;humidity
77147;BME280;66121;52.584;9.694;2023-11-19T00:00:18;100597.13;;;5.47;100.00
77147;BME280;66121;52.584;9.694;2023-11-19T00:02:43;100597.13;;;5.47;100.00
77147;BME280;66121;52.584;9.694;2023-11-19T00:05:10;100584.78;;;5.53;100.00
77147;BME280;66121;52.584;9.694;2023-11-19T00:07:36;100580.09;;;5.54;100.00
77147;BME280;66121;52.584;9.694;2023-11-19T00:10:02;100548.81;;;5.39;100.00
77147;BME280;66121;52.584;9.694;2023-11-19T00:12:32;100562.00;;;5.49;100.00
77147;BME280;66121;52.584;9.694;2023-11-19T00:14:57;100570.84;;;5.58;100.00
77147;BME280;66121;52.584;9.694;2023-11-19T00:17:22;100573.56;;;5.58;100.00
77147;BME280;66121;52.584;9.694;2023-11-19T00:19:47;100580.19;;;5.57;100.00
77147;BME280;66121;52.584;9.694;2023-11-19T00:22:14;100561.03;;;5.57;100.00
77147;BME280;66121;52.584;9.694;2023-11-19T00:24:39;100565.81;;;5.60;100.00
77147;BME280;66121;52.584;9.694;2023-11-19T00:27:04;100562.34;;;5.63;100.00
77147;BME280;66121;52.584;9.694;2023-11-19T00:29:30;100559.72;;;5.67;100.00
77147;BME280;66121;52.584;9.694;2023-11-19T00:31:55;100546.03;;;5.67;100.00
77147;BME280;66121;52.584;9.694;2023-11-19T00:34:21;100532.06;;;5.72;100.00
77147;BME280;66121;52.584;9.694;2023-11-19T00:36:47;100489.50;;;5.59;100.00
77147;BME280;66121;52.584;9.694;2023-11-19T00:39:13;100520.75;;;5.73;100.00
77147;BME280;66121;52.584;9.694;2023-11-19T00:41:40;100520.03;;;5.76;100.00
77147;BME280;66121;52.584;9.694;2023-11-19T00:44:05;100507.59;;;5.79;100.00
77147;BME280;66121;52.584;9.694;2023-11-19T00:46:30;100511.22;;;5.83;100.00
77147;BME280;66121;52.584;9.694;2023-11-19T00:48:58;100505.03;;;5.86;100.00
77147;BME280;66121;52.584;9.694;2023-11-19T00:51:25;100496.94;;;5.90;100.00
77147;BME280;66121;52.584;9.694;2023-11-19T00:53:51;100489.78;;;5.85;100.00
77147;BME280;66121;52.584;9.694;2023-11-19T00:56:18;100505.31;;;5.97;100.00
77147;BME280;66121;52.584;9.694;2023-11-19T00:58:44;100503.09;;;6.02;100.00
77147;BME280;66121;52.584;9.694;2023-11-19T01:01:11;100495.03;;;6.09;100.00
77147;BME280;66121;52.584;9.694;2023-11-19T01:03:37;100493.88;;;6.10;100.00
77147;BME280;66121;52.584;9.694;2023-11-19T01:06:02;100473.97;;;6.13;100.00
77147;BME280;66121;52.584;9.694;2023-11-19T01:08:28;100460.00;;;6.18;100.00
77147;BME280;66121;52.584;9.694;2023-11-19T01:10:53;100457.78;;;6.24;100.00
77147;BME280;66121;52.584;9.694;2023-11-19T01:13:18;100463.34;;;6.27;100.00
77147;BME280;66121;52.584;9.694;2023-11-19T01:15:43;100472.78;;;6.30;100.00
77147;BME280;66121;52.584;9.694;2023-11-19T01:18:09;100467.72;;;6.32;100.00
77147;BME280;66121;52.584;9.694;2023-11-19T01:20:34;100457.28;;;6.37;100.00
77147;BME280;66121;52.584;9.694;2023-11-19T01:23:00;100462.06;;;6.40;100.00
77147;BME280;66121;52.584;9.694;2023-11-19T01:25:25;100447.19;;;6.41;100.00
77147;BME280;66121;52.584;9.694;2023-11-19T01:27:50;100457.94;;;6.50;100.00
77147;BME280;66121;52.584;9.694;2023-11-19T01:30:15;100459.66;;;6.58;100.00
77147;BME280;66121;52.584;9.694;2023-11-19T01:32:41;100447.66;;;6.66;100.00
77147;BME280;66121;52.584;9.694;2023-11-19T01:35:06;100448.09;;;6.68;100.00
77147;BME280;66121;52.584;9.694;2023-11-19T01:37:33;100443.53;;;6.76;100.00
77147;BME280;66121;52.584;9.694;2023-11-19T01:39:59;100431.13;;;6.82;100.00
77147;BME280;66121;52.584;9.694;2023-11-19T01:42:25;100437.03;;;6.84;100.00
77147;BME280;66121;52.584;9.694;2023-11-19T01:44:58;100444.31;;;6.95;100.00
77147;BME280;66121;52.584;9.694;2023-11-19T01:47:27;100432.44;;;6.88;100.00
77147;BME280;66121;52.584;9.694;2023-11-19T01:49:54;100444.44;;;7.02;100.00
77147;BME280;66121;52.584;9.694;2023-11-19T01:52:19;100428.72;;;6.99;100.00
77147;BME280;66121;52.584;9.694;2023-11-19T01:54:45;100426.38;;;7.01;100.00
77147;BME280;66121;52.584;9.694;2023-11-19T01:57:11;100402.50;;;7.02;100.00
77147;BME280;66121;52.584;9.694;2023-11-19T01:59:37;100414.28;;;7.02;100.00
77147;BME280;66121;52.584;9.694;2023-11-19T02:02:04;100404.94;;;7.07;100.00
77147;BME280;66121;52.584;9.694;2023-11-19T02:04:30;100412.25;;;7.22;100.00
77147;BME280;66121;52.584;9.694;2023-11-19T02:06:57;100413.09;;;7.26;100.00
77147;BME280;66121;52.584;9.694;2023-11-19T02:09:23;100409.19;;;7.27;100.00
77147;BME280;66121;52.584;9.694;2023-11-19T02:11:48;100405.16;;;7.21;100.00
77147;BME280;66121;52.584;9.694;2023-11-19T02:14:17;100410.84;;;7.32;100.00
77147;BME280;66121;52.584;9.694;2023-11-19T02:16:42;100407.38;;;7.35;100.00
77147;BME280;66121;52.584;9.694;2023-11-19T02:19:07;100414.06;;;7.37;100.00
77147;BME280;66121;52.584;9.694;2023-11-19T02:21:35;100416.81;;;7.37;100.00
77147;BME280;66121;52.584;9.694;2023-11-19T02:24:03;100406.31;;;7.43;100.00
77147;BME280;66121;52.584;9.694;2023-11-19T02:26:56;100395.44;;;7.50;100.00
77147;BME280;66121;52.584;9.694;2023-11-19T02:29:23;100401.34;;;7.52;100.00
77147;BME280;66121;52.584;9.694;2023-11-19T02:31:48;100381.34;;;7.51;100.00
77147;BME280;66121;52.584;9.694;2023-11-19T02:34:13;100368.03;;;7.53;100.00
77147;BME280;66121;52.584;9.694;2023-11-19T02:36:39;100382.94;;;7.52;100.00
77147;BME280;66121;52.584;9.694;2023-11-19T02:39:06;100380.84;;;7.46;100.00
77147;BME280;66121;52.584;9.694;2023-11-19T02:41:35;100371.97;;;7.56;100.00
77147;BME280;66121;52.584;9.694;2023-11-19T02:44:00;100377.56;;;7.63;100.00
77147;BME280;66121;52.584;9.694;2023-11-19T02:46:26;100358.50;;;7.73;100.00
77147;BME280;66121;52.584;9.694;2023-11-19T02:48:51;100352.97;;;7.70;100.00
77147;BME280;66121;52.584;9.694;2023-11-19T02:51:17;100362.13;;;7.77;100.00
77147;BME280;66121;52.584;9.694;2023-11-19T02:53:43;100361.47;;;7.88;100.00
77147;BME280;66121;52.584;9.694;2023-11-19T02:56:09;100353.25;;;7.91;100.00
77147;BME280;66121;52.584;9.694;2023-11-19T02:58:45;100342.31;;;7.95;100.00
77147;BME280;66121;52.584;9.694;2023-11-19T03:01:11;100338.78;;;7.98;100.00
77147;BME280;66121;52.584;9.694;2023-11-19T03:03:48;100338.19;;;8.11;100.00
77147;BME280;66121;52.584;9.694;2023-11-19T03:06:20;100331.22;;;8.21;100.00
77147;BME280;66121;52.584;9.694;2023-11-19T03:08:46;100342.63;;;8.19;100.00
77147;BME280;66121;52.584;9.694;2023-11-19T03:11:13;100316.84;;;8.31;100.00
77147;BME280;66121;52.584;9.694;2023-11-19T03:13:38;100327.03;;;8.30;100.00
77147;BME280;66121;52.584;9.694;2023-11-19T03:16:04;100332.66;;;8.37;100.00
77147;BME280;66121;52.584;9.694;2023-11-19T03:18:29;100321.31;;;8.43;100.00
77147;BME280;66121;52.584;9.694;2023-11-19T03:20:55;100329.97;;;8.45;100.00
77147;BME280;66121;52.584;9.694;2023-11-19T03:23:20;100341.38;;;8.50;100.00
77147;BME280;66121;52.584;9.694;2023-11-19T03:25:45;100327.22;;;8.48;100.00
77147;BME280;66121;52.584;9.694;2023-11-19T03:28:11;100322.56;;;8.52;100.00
77147;BME280;66121;52.584;9.694;2023-11-19T03:30:36;100303.75;;;8.54;100.00
77147;BME280;66121;52.584;9.694;2023-11-19T03:33:02;100317.09;;;8.56;100.00
77147;BME280;66121;52.584;9.694;2023-11-19T03:35:28;100323.41;;;8.56;100.00
77147;BME280;66121;52.584;9.694;2023-11-19T03:37:53;100315.16;;;8.56;100.00
77147;BME280;66121;52.584;9.694;2023-11-19T03:40:18;100313.66;;;8.66;100.00
77147;BME280;66121;52.584;9.694;2023-11-19T03:42:45;100299.91;;;8.66;100.00
77147;BME280;66121;52.584;9.694;2023-11-19T03:45:10;100294.38;;;8.62;100.00
77147;BME280;66121;52.584;9.694;2023-11-19T03:47:36;100302.19;;;8.57;100.00
77147;BME280;66121;52.584;9.694;2023-11-19T03:50:02;100324.31;;;8.71;100.00
77147;BME280;66121;52.584;9.694;2023-11-19T03:52:28;100326.69;;;8.72;100.00
77147;BME280;66121;52.584;9.694;2023-11-19T03:54:54;100311.75;;;8.73;100.00
77147;BME280;66121;52.584;9.694;2023-11-19T03:57:20;100305.47;;;8.73;100.00
77147;BME280;66121;52.584;9.694;2023-11-19T03:59:46;100311.00;;;8.76;100.00
77147;BME280;66121;52.584;9.694;2023-11-19T04:02:11;100323.59;;;8.77;100.00
77147;BME280;66121;52.584;9.694;2023-11-19T04:04:36;100314.22;;;8.82;100.00
77147;BME280;66121;52.584;9.694;2023-11-19T04:07:04;100307.16;;;8.88;100.00
77147;BME280;66121;52.584;9.694;2023-11-19T04:09:29;100320.16;;;8.91;100.00
77147;BME280;66121;52.584;9.694;2023-11-19T04:11:55;100313.16;;;8.97;100.00
77147;BME280;66121;52.584;9.694;2023-11-19T04:14:20;100309.25;;;9.01;100.00
77147;BME280;66121;52.584;9.694;2023-11-19T04:16:46;100307.00;;;9.18;100.00
77147;BME280;66121;52.584;9.694;2023-11-19T04:19:11;100313.31;;;9.18;100.00
77147;BME280;66121;52.584;9.694;2023-11-19T04:21:37;100303.03;;;9.12;100.00
77147;BME280;66121;52.584;9.694;2023-11-19T04:24:04;100318.09;;;9.25;100.00
77147;BME280;66121;52.584;9.694;2023-11-19T04:26:30;100324.78;;;9.31;100.00
77147;BME280;66121;52.584;9.694;2023-11-19T04:28:56;100321.38;;;9.48;100.00
77147;BME280;66121;52.584;9.694;2023-11-19T04:31:21;100329.25;;;9.49;100.00
77147;BME280;66121;52.584;9.694;2023-11-19T04:33:46;100317.44;;;9.52;100.00
77147;BME280;66121;52.584;9.694;2023-11-19T04:36:12;100314.41;;;9.68;100.00
77147;BME280;66121;52.584;9.694;2023-11-19T04:38:39;100309.31;;;9.73;100.00
77147;BME280;66121;52.584;9.694;2023-11-19T04:41:05;100298.69;;;9.76;100.00
77147;BME280;66121;52.584;9.694;2023-11-19T04:43:31;100296.34;;;9.81;100.00
77147;BME280;66121;52.584;9.694;2023-11-19T04:45:57;100294.41;;;9.82;100.00
77147;BME280;66121;52.584;9.694;2023-11-19T04:48:23;100294.41;;;9.89;100.00
77147;BME280;66121;52.584;9.694;2023-11-19T04:50:48;100289.31;;;9.91;100.00
77147;BME280;66121;52.584;9.694;2023-11-19T04:53:13;100288.16;;;10.02;100.00
77147;BME280;66121;52.584;9.694;2023-11-19T04:55:40;100292.47;;;10.00;100.00
77147;BME280;66121;52.584;9.694;2023-11-19T04:58:06;100274.38;;;9.92;100.00
77147;BME280;66121;52.584;9.694;2023-11-19T05:00:32;100272.44;;;10.10;100.00
77147;BME280;66121;52.584;9.694;2023-11-19T05:02:57;100255.56;;;10.25;100.00
77147;BME280;66121;52.584;9.694;2023-11-19T05:05:22;100263.09;;;10.32;100.00
77147;BME280;66121;52.584;9.694;2023-11-19T05:07:48;100259.91;;;10.26;100.00
77147;BME280;66121;52.584;9.694;2023-11-19T05:10:13;100257.56;;;10.35;100.00
77147;BME280;66121;52.584;9.694;2023-11-19T05:12:39;100246.13;;;10.37;100.00
77147;BME280;66121;52.584;9.694;2023-11-19T05:15:05;100241.38;;;10.23;100.00
77147;BME280;66121;52.584;9.694;2023-11-19T05:17:30;100236.69;;;10.42;100.00
77147;BME280;66121;52.584;9.694;2023-11-19T05:19:55;100228.81;;;10.37;100.00
77147;BME280;66121;52.584;9.694;2023-11-19T05:22:21;100210.66;;;10.28;100.00
77147;BME280;66121;52.584;9.694;2023-11-19T05:24:46;100216.97;;;10.43;100.00
77147;BME280;66121;52.584;9.694;2023-11-19T05:27:13;100213.44;;;10.50;100.00
77147;BME280;66121;52.584;9.694;2023-11-19T05:29:39;100205.94;;;10.43;100.00
77147;BME280;66121;52.584;9.694;2023-11-19T05:32:06;100201.22;;;10.40;100.00
77147;BME280;66121;52.584;9.694;2023-11-19T05:34:32;100209.88;;;10.46;100.00
77147;BME280;66121;52.584;9.694;2023-11-19T05:36:57;100222.88;;;10.52;100.00
77147;BME280;66121;52.584;9.694;2023-11-19T05:39:23;100218.97;;;10.57;100.00
77147;BME280;66121;52.584;9.694;2023-11-19T05:41:49;100215.00;;;10.51;100.00
77147;BME280;66121;52.584;9.694;2023-11-19T05:44:14;100207.94;;;10.46;100.00
77147;BME280;66121;52.584;9.694;2023-11-19T05:46:40;100203.59;;;10.49;100.00
77147;BME280;66121;52.584;9.694;2023-11-19T05:49:08;100202.81;;;10.41;100.00
77147;BME280;66121;52.584;9.694;2023-11-19T05:51:39;100193.34;;;10.39;100.00
77147;BME280;66121;52.584;9.694;2023-11-19T05:54:08;100205.94;;;10.50;100.00
77147;BME280;66121;52.584;9.694;2023-11-19T05:56:34;100199.63;;;10.43;100.00
77147;BME280;66121;52.584;9.694;2023-11-19T05:59:00;100203.59;;;10.45;100.00
77147;BME280;66121;52.584;9.694;2023-11-19T06:01:28;100204.38;;;10.49;100.00
77147;BME280;66121;52.584;9.694;2023-11-19T06:03:54;100215.03;;;10.54;100.00
77147;BME280;66121;52.584;9.694;2023-11-19T06:06:19;100210.69;;;10.60;100.00
77147;BME280;66121;52.584;9.694;2023-11-19T06:08:45;100211.47;;;10.71;100.00
77147;BME280;66121;52.584;9.694;2023-11-19T06:11:11;100207.13;;;10.77;100.00
77147;BME280;66121;52.584;9.694;2023-11-19T06:13:43;100203.59;;;10.77;100.00
77147;BME280;66121;52.584;9.694;2023-11-19T06:16:09;100210.25;;;10.79;100.00
77147;BME280;66121;52.584;9.694;2023-11-19T06:18:34;100197.69;;;10.61;100.00
77147;BME280;66121;52.584;9.694;2023-11-19T06:20:59;100198.06;;;10.56;100.00
77147;BME280;66121;52.584;9.694;2023-11-19T06:23:25;100209.13;;;10.59;100.00
77147;BME280;66121;52.584;9.694;2023-11-19T06:25:50;100199.25;;;10.62;100.00
77147;BME280;66121;52.584;9.694;2023-11-19T06:28:15;100184.28;;;10.56;100.00
77147;BME280;66121;52.584;9.694;2023-11-19T06:30:41;100181.13;;;10.54;100.00
77147;BME280;66121;52.584;9.694;2023-11-19T06:33:06;100181.91;;;10.44;100.00
77147;BME280;66121;52.584;9.694;2023-11-19T06:35:32;100175.63;;;10.47;100.00
77147;BME280;66121;52.584;9.694;2023-11-19T06:38:04;100170.88;;;10.44;100.00
77147;BME280;66121;52.584;9.694;2023-11-19T06:40:31;100178.38;;;10.43;100.00
77147;BME280;66121;52.584;9.694;2023-11-19T06:42:56;100164.56;;;10.43;100.00
77147;BME280;66121;52.584;9.694;2023-11-19T06:45:21;100161.81;;;10.40;100.00
77147;BME280;66121;52.584;9.694;2023-11-19T06:47:47;100166.16;;;10.44;100.00
77147;BME280;66121;52.584;9.694;2023-11-19T06:50:12;100157.09;;;10.54;100.00
77147;BME280;66121;52.584;9.694;2023-11-19T06:52:37;100172.06;;;10.53;100.00
77147;BME280;66121;52.584;9.694;2023-11-19T06:55:04;100171.28;;;10.46;100.00
77147;BME280;66121;52.584;9.694;2023-11-19T06:57:29;100158.25;;;10.50;100.00
77147;BME280;66121;52.584;9.694;2023-11-19T06:59:57;100160.25;;;10.49;100.00
77147;BME280;66121;52.584;9.694;2023-11-19T07:02:22;100148.81;;;10.61;100.00
77147;BME280;66121;52.584;9.694;2023-11-19T07:04:48;100151.97;;;10.56;100.00
77147;BME280;66121;52.584;9.694;2023-11-19T07:07:13;100142.91;;;10.56;100.00
77147;BME280;66121;52.584;9.694;2023-11-19T07:09:40;100143.69;;;10.67;100.00
77147;BME280;66121;52.584;9.694;2023-11-19T07:12:05;100141.31;;;10.58;100.00
77147;BME280;66121;52.584;9.694;2023-11-19T07:14:31;100131.06;;;10.59;100.00
77147;BME280;66121;52.584;9.694;2023-11-19T07:16:56;100132.63;;;10.60;100.00
77147;BME280;66121;52.584;9.694;2023-11-19T07:19:22;100135.81;;;10.51;100.00
77147;BME280;66121;52.584;9.694;2023-11-19T07:21:47;100112.56;;;10.56;100.00
77147;BME280;66121;52.584;9.694;2023-11-19T07:24:13;100115.31;;;10.56;100.00
77147;BME280;66121;52.584;9.694;2023-11-19T07:26:43;100108.22;;;10.55;100.00
77147;BME280;66121;52.584;9.694;2023-11-19T07:29:08;100110.97;;;10.55;100.00
77147;BME280;66121;52.584;9.694;2023-11-19T07:31:34;100103.09;;;10.60;100.00
77147;BME280;66121;52.584;9.694;2023-11-19T07:33:59;100093.25;;;10.52;100.00
77147;BME280;66121;52.584;9.694;2023-11-19T07:36:24;100089.72;;;10.48;100.00
77147;BME280;66121;52.584;9.694;2023-11-19T07:38:49;100091.69;;;10.51;100.00
77147;BME280;66121;52.584;9.694;2023-11-19T07:41:15;100091.22;;;10.70;100.00
77147;BME280;66121;52.584;9.694;2023-11-19T07:43:43;100094.78;;;10.67;100.00
77147;BME280;66121;52.584;9.694;2023-11-19T07:46:13;100082.56;;;10.79;100.00
77147;BME280;66121;52.584;9.694;2023-11-19T07:48:41;100083.72;;;10.78;100.00
77147;BME280;66121;52.584;9.694;2023-11-19T07:51:07;100082.91;;;10.84;100.00
77147;BME280;66121;52.584;9.694;2023-11-19T07:53:33;100082.97;;;10.74;100.00
77147;BME280;66121;52.584;9.694;2023-11-19T07:55:58;100062.09;;;10.62;100.00
77147;BME280;66121;52.584;9.694;2023-11-19T07:58:25;100066.41;;;10.70;100.00
77147;BME280;66121;52.584;9.694;2023-11-19T08:00:50;100071.13;;;10.77;100.00
77147;BME280;66121;52.584;9.694;2023-11-19T08:03:17;100065.59;;;10.84;100.00
77147;BME280;66121;52.584;9.694;2023-11-19T08:05:42;100067.13;;;10.85;100.00
77147;BME280;66121;52.584;9.694;2023-11-19T08:08:07;100051.44;;;10.71;100.00
77147;BME280;66121;52.584;9.694;2023-11-19T08:10:33;100059.72;;;10.71;100.00
77147;BME280;66121;52.584;9.694;2023-11-19T08:12:58;100044.69;;;10.79;100.00
77147;BME280;66121;52.584;9.694;2023-11-19T08:15:23;100048.66;;;10.78;100.00
77147;BME280;66121;52.584;9.694;2023-11-19T08:17:49;100043.09;;;10.82;100.00
77147;BME280;66121;52.584;9.694;2023-11-19T08:20:14;100042.69;;;10.90;100.00
77147;BME280;66121;52.584;9.694;2023-11-19T08:22:40;100037.91;;;11.02;100.00
77147;BME280;66121;52.584;9.694;2023-11-19T08:25:06;100037.50;;;11.03;100.00
77147;BME280;66121;52.584;9.694;2023-11-19T08:27:32;100030.38;;;11.09;100.00
77147;BME280;66121;52.584;9.694;2023-11-19T08:29:57;100026.03;;;11.12;100.00
77147;BME280;66121;52.584;9.694;2023-11-19T08:32:24;100026.41;;;11.14;100.00
77147;BME280;66121;52.584;9.694;2023-11-19T08:34:50;100010.25;;;11.09;100.00
77147;BME280;66121;52.584;9.694;2023-11-19T08:37:15;99998.69;;;11.28;100.00
77147;BME280;66121;52.584;9.694;2023-11-19T08:39:43;99999.06;;;11.30;100.00
77147;BME280;66121;52.584;9.694;2023-11-19T08:42:08;99997.16;;;11.23;100.00
77147;BME280;66121;52.584;9.694;2023-11-19T08:44:33;99987.31;;;11.19;100.00
77147;BME280;66121;52.584;9.694;2023-11-19T08:46:59;99990.53;;;11.10;100.00
77147;BME280;66121;52.584;9.694;2023-11-19T08:49:24;99991.69;;;11.16;100.00
77147;BME280;66121;52.584;9.694;2023-11-19T08:51:49;99985.78;;;11.14;100.00
77147;BME280;66121;52.584;9.694;2023-11-19T08:54:14;99979.38;;;11.28;100.00
77147;BME280;66121;52.584;9.694;2023-11-19T08:56:40;99964.25;;;11.46;100.00
77147;BME280;66121;52.584;9.694;2023-11-19T08:59:05;99970.06;;;11.59;100.00
77147;BME280;66121;52.584;9.694;2023-11-19T09:01:30;99981.56;;;11.50;100.00
77147;BME280;66121;52.584;9.694;2023-11-19T09:03:56;99989.91;;;11.43;100.00
77147;BME280;66121;52.584;9.694;2023-11-19T09:06:21;99981.59;;;11.47;100.00
77147;BME280;66121;52.584;9.694;2023-11-19T09:08:46;100013.13;;;11.53;100.00
77147;BME280;66121;52.584;9.694;2023-11-19T09:11:12;100018.34;;;11.44;100.00
77147;BME280;66121;52.584;9.694;2023-11-19T09:13:37;100030.56;;;11.46;100.00
77147;BME280;66121;52.584;9.694;2023-11-19T09:16:03;100027.00;;;11.42;100.00
77147;BME280;66121;52.584;9.694;2023-11-19T09:18:29;100038.84;;;11.43;100.00
77147;BME280;66121;52.584;9.694;2023-11-19T09:20:54;100026.84;;;11.71;100.00
77147;BME280;66121;52.584;9.694;2023-11-19T09:23:20;100018.88;;;11.80;100.00
77147;BME280;66121;52.584;9.694;2023-11-19T09:25:45;100024.16;;;11.56;100.00
77147;BME280;66121;52.584;9.694;2023-11-19T09:28:10;100025.03;;;11.43;100.00
77147;BME280;66121;52.584;9.694;2023-11-19T09:30:36;100027.44;;;11.37;100.00
77147;BME280;66121;52.584;9.694;2023-11-19T09:33:01;100021.53;;;11.35;100.00
77147;BME280;66121;52.584;9.694;2023-11-19T09:35:27;100020.72;;;11.38;100.00
77147;BME280;66121;52.584;9.694;2023-11-19T09:37:52;100016.44;;;11.34;100.00
77147;BME280;66121;52.584;9.694;2023-11-19T09:40:18;100020.38;;;11.33;100.00
77147;BME280;66121;52.584;9.694;2023-11-19T09:42:44;100010.53;;;11.28;100.00
77147;BME280;66121;52.584;9.694;2023-11-19T09:45:16;100023.91;;;11.33;100.00
77147;BME280;66121;52.584;9.694;2023-11-19T09:47:45;100003.41;;;11.31;100.00
77147;BME280;66121;52.584;9.694;2023-11-19T09:50:16;100001.41;;;11.35;100.00
77147;BME280;66121;52.584;9.694;2023-11-19T09:52:42;99992.97;;;11.56;100.00
77147;BME280;66121;52.584;9.694;2023-11-19T09:55:07;99989.75;;;11.64;100.00
77147;BME280;66121;52.584;9.694;2023-11-19T09:57:35;99986.16;;;11.68;100.00
77147;BME280;66121;52.584;9.694;2023-11-19T10:00:02;99978.75;;;11.61;100.00
77147;BME280;66121;52.584;9.694;2023-11-19T10:02:31;99959.28;;;11.75;100.00
77147;BME280;66121;52.584;9.694;2023-11-19T10:04:58;99970.28;;;11.82;100.00
77147;BME280;66121;52.584;9.694;2023-11-19T10:07:24;99968.72;;;11.81;100.00
77147;BME280;66121;52.584;9.694;2023-11-19T10:09:50;99962.78;;;11.79;100.00
77147;BME280;66121;52.584;9.694;2023-11-19T10:12:15;99956.47;;;11.82;100.00
77147;BME280;66121;52.584;9.694;2023-11-19T10:14:42;99961.72;;;12.10;100.00
77147;BME280;66121;52.584;9.694;2023-11-19T10:17:08;99962.16;;;12.09;100.00
77147;BME280;66121;52.584;9.694;2023-11-19T10:19:34;99965.72;;;12.43;100.00
77147;BME280;66121;52.584;9.694;2023-11-19T10:22:06;99953.31;;;12.55;99.07
77147;BME280;66121;52.584;9.694;2023-11-19T10:24:32;99946.63;;;12.52;98.60
77147;BME280;66121;52.584;9.694;2023-11-19T10:27:02;99938.06;;;12.40;98.41
77147;BME280;66121;52.584;9.694;2023-11-19T10:29:29;99933.22;;;12.51;98.33
77147;BME280;66121;52.584;9.694;2023-11-19T10:31:58;99923.06;;;12.71;96.73
77147;BME280;66121;52.584;9.694;2023-11-19T10:34:25;99915.94;;;12.70;95.17
77147;BME280;66121;52.584;9.694;2023-11-19T10:36:51;99913.38;;;12.56;96.44
77147;BME280;66121;52.584;9.694;2023-11-19T10:39:16;99904.84;;;12.43;95.41
77147;BME280;66121;52.584;9.694;2023-11-19T10:41:43;99888.00;;;12.31;94.00
77147;BME280;66121;52.584;9.694;2023-11-19T10:44:08;99892.75;;;12.30;94.61
77147;BME280;66121;52.584;9.694;2023-11-19T10:46:41;99882.88;;;12.29;95.50
77147;BME280;66121;52.584;9.694;2023-11-19T10:49:07;99871.50;;;12.23;94.72
77147;BME280;66121;52.584;9.694;2023-11-19T10:51:33;99884.03;;;12.32;95.25
77147;BME280;66121;52.584;9.694;2023-11-19T10:54:05;99880.28;;;12.49;95.39
77147;BME280;66121;52.584;9.694;2023-11-19T10:56:32;99867.06;;;12.60;95.27
77147;BME280;66121;52.584;9.694;2023-11-19T10:58:59;99861.75;;;12.72;95.65
77147;BME280;66121;52.584;9.694;2023-11-19T11:01:27;99869.22;;;12.75;95.22
77147;BME280;66121;52.584;9.694;2023-11-19T11:03:59;99871.16;;;13.05;94.88
77147;BME280;66121;52.584;9.694;2023-11-19T11:06:27;99845.03;;;12.79;93.86
77147;BME280;66121;52.584;9.694;2023-11-19T11:08:53;99837.16;;;12.78;93.32
77147;BME280;66121;52.584;9.694;2023-11-19T11:11:19;99834.25;;;12.85;92.35
77147;BME280;66121;52.584;9.694;2023-11-19T11:13:49;99819.63;;;12.61;92.97
77147;BME280;66121;52.584;9.694;2023-11-19T11:16:18;99813.31;;;12.57;93.14
77147;BME280;66121;52.584;9.694;2023-11-19T11:18:45;99809.59;;;12.94;92.15
77147;BME280;66121;52.584;9.694;2023-11-19T11:21:17;99810.03;;;12.92;93.02
77147;BME280;66121;52.584;9.694;2023-11-19T11:29:46;99805.00;;;12.84;92.38
77147;BME280;66121;52.584;9.694;2023-11-19T11:32:35;99800.09;;;12.95;91.84
77147;BME280;66121;52.584;9.694;2023-11-19T11:35:19;99804.25;;;12.83;91.01
77147;BME280;66121;52.584;9.694;2023-11-19T11:37:50;99810.19;;;12.82;92.04
77147;BME280;66121;52.584;9.694;2023-11-19T11:40:18;99786.28;;;12.68;92.12
77147;BME280;66121;52.584;9.694;2023-11-19T11:42:44;99802.47;;;12.70;92.79
77147;BME280;66121;52.584;9.694;2023-11-19T11:45:11;99785.25;;;12.59;93.25
77147;BME280;66121;52.584;9.694;2023-11-19T11:50:11;99785.16;;;12.89;93.18
77147;BME280;66121;52.584;9.694;2023-11-19T11:55:36;99771.69;;;12.64;91.95
77147;BME280;66121;52.584;9.694;2023-11-19T11:58:02;99757.38;;;12.46;92.13
77147;BME280;66121;52.584;9.694;2023-11-19T12:00:41;99758.13;;;12.20;93.58
77147;BME280;66121;52.584;9.694;2023-11-19T12:03:07;99760.56;;;12.14;94.39
77147;BME280;66121;52.584;9.694;2023-11-19T12:05:38;99760.47;;;12.21;94.14
77147;BME280;66121;52.584;9.694;2023-11-19T12:08:06;99764.03;;;12.22;93.80
77147;BME280;66121;52.584;9.694;2023-11-19T12:10:56;99762.84;;;12.23;93.23
77147;BME280;66121;52.584;9.694;2023-11-19T12:13:29;99755.28;;;12.27;94.19
77147;BME280;66121;52.584;9.694;2023-11-19T12:18:23;99756.47;;;12.26;94.42
77147;BME280;66121;52.584;9.694;2023-11-19T12:20:49;99750.63;;;12.20;94.27
77147;BME280;66121;52.584;9.694;2023-11-19T12:23:15;99749.06;;;12.19;94.33
77147;BME280;66121;52.584;9.694;2023-11-19T12:25:40;99752.03;;;12.05;94.30
77147;BME280;66121;52.584;9.694;2023-11-19T12:28:11;99754.88;;;11.98;94.43
77147;BME280;66121;52.584;9.694;2023-11-19T12:30:38;99757.13;;;12.07;95.11
77147;BME280;66121;52.584;9.694;2023-11-19T12:33:08;99749.81;;;11.93;95.68
77147;BME280;66121;52.584;9.694;2023-11-19T12:35:39;99761.34;;;11.88;96.08
77147;BME280;66121;52.584;9.694;2023-11-19T12:38:04;99747.44;;;11.92;95.79
77147;BME280;66121;52.584;9.694;2023-11-19T12:40:29;99740.31;;;11.94;95.27
77147;BME280;66121;52.584;9.694;2023-11-19T12:42:55;99740.69;;;11.96;94.71
77147;BME280;66121;52.584;9.694;2023-11-19T12:45:20;99750.03;;;12.06;94.31
77147;BME280;66121;52.584;9.694;2023-11-19T12:47:48;99745.88;;;12.21;95.20
77147;BME280;66121;52.584;9.694;2023-11-19T12:50:17;99749.25;;;12.32;94.97
77147;BME280;66121;52.584;9.694;2023-11-19T12:52:55;99739.94;;;12.22;94.24
77147;BME280;66121;52.584;9.694;2023-11-19T12:55:25;99737.84;;;12.30;93.38
77147;BME280;66121;52.584;9.694;2023-11-19T12:57:54;99723.88;;;12.14;94.06